sensor_id;sensor_type;location;lat;lon;timestamp;temperature;humidity
2897;DHT22;1458;49.728;9.228;2022-08-30T00:02:16;13.80;99.90
2897;DHT22;1458;49.728;9.228;2022-08-30T00:04:45;13.80;99.90
2897;DHT22;1458;49.728;9.228;2022-08-30T00:07:14;13.60;99.90
2897;DHT22;1458;49.728;9.228;2022-08-30T00:09:42;13.60;99.90
2897;DHT22;1458;49.728;9.228;2022-08-30T00:12:10;13.80;99.90
2897;DHT22;1458;49.728;9.228;2022-08-30T00:14:37;13.80;99.90
2897;DHT22;1458;49.728;9.228;2022-08-30T00:17:04;13.90;99.90
2897;DHT22;1458;49.728;9.228;2022-08-30T00:19:32;13.90;99.90
2897;DHT22;1458;49.728;9.228;2022-08-30T00:22:00;13.70;99.90
2897;DHT22;1458;49.728;9.228;2022-08-30T00:24:28;13.50;99.90
2897;DHT22;1458;49.728;9.228;2022-08-30T00:26:56;13.60;99.90
2897;DHT22;1458;49.728;9.228;2022-08-30T00:29:24;13.80;99.90
2897;DHT22;1458;49.728;9.228;2022-08-30T00:31:51;13.80;99.90
2897;DHT22;1458;49.728;9.228;2022-08-30T00:34:19;13.80;99.90
2897;DHT22;1458;49.728;9.228;2022-08-30T00:36:46;13.80;99.90
2897;DHT22;1458;49.728;9.228;2022-08-30T00:39:14;13.80;99.90
2897;DHT22;1458;49.728;9.228;2022-08-30T00:41:43;13.80;99.90
2897;DHT22;1458;49.728;9.228;2022-08-30T00:44:11;13.90;99.90
2897;DHT22;1458;49.728;9.228;2022-08-30T00:46:38;14.10;99.90
2897;DHT22;1458;49.728;9.228;2022-08-30T00:49:10;14.20;99.90
2897;DHT22;1458;49.728;9.228;2022-08-30T00:51:39;14.20;99.90
2897;DHT22;1458;49.728;9.228;2022-08-30T00:54:07;14.10;99.90
2897;DHT22;1458;49.728;9.228;2022-08-30T00:56:35;14.10;99.90
2897;DHT22;1458;49.728;9.228;2022-08-30T00:59:05;14.00;99.90
2897;DHT22;1458;49.728;9.228;2022-08-30T01:04:46;13.60;99.90
2897;DHT22;1458;49.728;9.228;2022-08-30T01:07:14;13.50;99.90
2897;DHT22;1458;49.728;9.228;2022-08-30T01:09:42;13.50;99.90
2897;DHT22;1458;49.728;9.228;2022-08-30T01:12:10;13.50;99.90
2897;DHT22;1458;49.728;9.228;2022-08-30T01:14:39;13.70;99.90
2897;DHT22;1458;49.728;9.228;2022-08-30T01:17:08;13.70;99.90
2897;DHT22;1458;49.728;9.228;2022-08-30T01:19:41;13.70;99.90
2897;DHT22;1458;49.728;9.228;2022-08-30T01:22:20;13.90;99.90
2897;DHT22;1458;49.728;9.228;2022-08-30T01:24:55;14.00;99.90
2897;DHT22;1458;49.728;9.228;2022-08-30T01:27:24;13.90;99.90
2897;DHT22;1458;49.728;9.228;2022-08-30T01:29:53;14.00;99.90
2897;DHT22;1458;49.728;9.228;2022-08-30T01:32:23;14.00;99.90
2897;DHT22;1458;49.728;9.228;2022-08-30T01:34:54;13.90;99.90
2897;DHT22;1458;49.728;9.228;2022-08-30T01:37:26;13.90;99.90
2897;DHT22;1458;49.728;9.228;2022-08-30T01:39:58;13.80;99.90
2897;DHT22;1458;49.728;9.228;2022-08-30T01:42:26;14.00;99.90
2897;DHT22;1458;49.728;9.228;2022-08-30T01:44:54;14.00;99.90
2897;DHT22;1458;49.728;9.228;2022-08-30T01:47:21;14.10;99.90
2897;DHT22;1458;49.728;9.228;2022-08-30T01:49:49;14.00;99.90
2897;DHT22;1458;49.728;9.228;2022-08-30T01:52:17;14.20;99.90
2897;DHT22;1458;49.728;9.228;2022-08-30T01:54:45;14.10;99.90
2897;DHT22;1458;49.728;9.228;2022-08-30T01:57:17;14.10;99.90
2897;DHT22;1458;49.728;9.228;2022-08-30T01:59:47;14.10;99.90
2897;DHT22;1458;49.728;9.228;2022-08-30T02:02:17;14.10;99.90
2897;DHT22;1458;49.728;9.228;2022-08-30T02:04:46;14.00;99.90
2897;DHT22;1458;49.728;9.228;2022-08-30T02:07:14;13.80;99.90
2897;DHT22;1458;49.728;9.228;2022-08-30T02:09:42;13.80;99.90
2897;DHT22;1458;49.728;9.228;2022-08-30T02:12:09;13.70;99.90
2897;DHT22;1458;49.728;9.228;2022-08-30T02:14:39;13.80;99.90
2897;DHT22;1458;49.728;9.228;2022-08-30T02:17:08;14.00;99.90
2897;DHT22;1458;49.728;9.228;2022-08-30T02:19:38;14.00;99.90
2897;DHT22;1458;49.728;9.228;2022-08-30T02:22:06;14.00;99.90
2897;DHT22;1458;49.728;9.228;2022-08-30T02:24:34;14.10;99.90
2897;DHT22;1458;49.728;9.228;2022-08-30T02:27:01;14.10;99.90
2897;DHT22;1458;49.728;9.228;2022-08-30T02:29:30;14.00;99.90
2897;DHT22;1458;49.728;9.228;2022-08-30T02:31:59;14.00;99.90
2897;DHT22;1458;49.728;9.228;2022-08-30T02:34:26;13.90;99.90
2897;DHT22;1458;49.728;9.228;2022-08-30T02:36:54;13.90;99.90
2897;DHT22;1458;49.728;9.228;2022-08-30T02:39:21;13.80;99.90
2897;DHT22;1458;49.728;9.228;2022-08-30T02:45:00;13.70;99.90
2897;DHT22;1458;49.728;9.228;2022-08-30T02:47:29;13.50;99.90
2897;DHT22;1458;49.728;9.228;2022-08-30T02:49:57;13.40;99.90
2897;DHT22;1458;49.728;9.228;2022-08-30T02:52:28;13.40;99.90
2897;DHT22;1458;49.728;9.228;2022-08-30T02:54:55;13.50;99.90
2897;DHT22;1458;49.728;9.228;2022-08-30T02:57:26;13.60;99.90
2897;DHT22;1458;49.728;9.228;2022-08-30T02:59:53;13.70;99.90
2897;DHT22;1458;49.728;9.228;2022-08-30T03:02:21;13.60;99.90
2897;DHT22;1458;49.728;9.228;2022-08-30T03:04:51;13.60;99.90
2897;DHT22;1458;49.728;9.228;2022-08-30T03:07:22;13.60;99.90
2897;DHT22;1458;49.728;9.228;2022-08-30T03:09:49;13.50;99.90
2897;DHT22;1458;49.728;9.228;2022-08-30T03:12:18;13.50;99.90
2897;DHT22;1458;49.728;9.228;2022-08-30T03:14:45;13.40;99.90
2897;DHT22;1458;49.728;9.228;2022-08-30T03:17:13;13.20;99.90
2897;DHT22;1458;49.728;9.228;2022-08-30T03:19:42;13.30;99.90
2897;DHT22;1458;49.728;9.228;2022-08-30T03:22:46;13.40;99.90
2897;DHT22;1458;49.728;9.228;2022-08-30T03:25:14;13.60;99.90
2897;DHT22;1458;49.728;9.228;2022-08-30T03:27:42;13.70;99.90
2897;DHT22;1458;49.728;9.228;2022-08-30T03:30:10;13.60;99.90
2897;DHT22;1458;49.728;9.228;2022-08-30T03:32:47;13.60;99.90
2897;DHT22;1458;49.728;9.228;2022-08-30T03:35:15;13.60;99.90
2897;DHT22;1458;49.728;9.228;2022-08-30T03:37:44;13.50;99.90
2897;DHT22;1458;49.728;9.228;2022-08-30T03:40:15;13.60;99.90
2897;DHT22;1458;49.728;9.228;2022-08-30T03:42:45;13.70;99.90
2897;DHT22;1458;49.728;9.228;2022-08-30T03:45:15;13.80;99.90
2897;DHT22;1458;49.728;9.228;2022-08-30T03:47:53;13.70;99.90
2897;DHT22;1458;49.728;9.228;2022-08-30T03:50:20;13.70;99.90
2897;DHT22;1458;49.728;9.228;2022-08-30T03:52:51;13.70;99.90
2897;DHT22;1458;49.728;9.228;2022-08-30T03:55:19;13.70;99.90
2897;DHT22;1458;49.728;9.228;2022-08-30T03:57:47;13.60;99.90
2897;DHT22;1458;49.728;9.228;2022-08-30T04:00:16;13.60;99.90
2897;DHT22;1458;49.728;9.228;2022-08-30T04:03:05;13.60;99.90
2897;DHT22;1458;49.728;9.228;2022-08-30T04:05:33;13.60;99.90
2897;DHT22;1458;49.728;9.228;2022-08-30T04:08:03;13.50;99.90
2897;DHT22;1458;49.728;9.228;2022-08-30T04:10:31;13.50;99.90
2897;DHT22;1458;49.728;9.228;2022-08-30T04:13:00;13.50;99.90
2897;DHT22;1458;49.728;9.228;2022-08-30T04:15:27;13.50;99.90
2897;DHT22;1458;49.728;9.228;2022-08-30T04:18:10;13.60;99.90
2897;DHT22;1458;49.728;9.228;2022-08-30T04:20:38;13.50;99.90
2897;DHT22;1458;49.728;9.228;2022-08-30T04:23:11;13.50;99.90
2897;DHT22;1458;49.728;9.228;2022-08-30T04:25:40;13.40;99.90
2897;DHT22;1458;49.728;9.228;2022-08-30T04:28:08;13.40;99.90
2897;DHT22;1458;49.728;9.228;2022-08-30T04:30:40;13.40;99.90
2897;DHT22;1458;49.728;9.228;2022-08-30T04:33:10;13.50;99.90
2897;DHT22;1458;49.728;9.228;2022-08-30T04:35:39;13.40;99.90
2897;DHT22;1458;49.728;9.228;2022-08-30T04:38:08;13.40;99.90
2897;DHT22;1458;49.728;9.228;2022-08-30T04:40:37;13.40;99.90
2897;DHT22;1458;49.728;9.228;2022-08-30T04:43:04;13.30;99.90
2897;DHT22;1458;49.728;9.228;2022-08-30T04:45:32;13.30;99.90
2897;DHT22;1458;49.728;9.228;2022-08-30T04:47:59;13.30;99.90
2897;DHT22;1458;49.728;9.228;2022-08-30T04:50:27;13.50;99.90
2897;DHT22;1458;49.728;9.228;2022-08-30T04:53:00;13.50;99.90
2897;DHT22;1458;49.728;9.228;2022-08-30T04:55:28;13.50;99.90
2897;DHT22;1458;49.728;9.228;2022-08-30T04:57:57;13.60;99.90
2897;DHT22;1458;49.728;9.228;2022-08-30T05:00:25;13.60;99.90
2897;DHT22;1458;49.728;9.228;2022-08-30T05:02:53;13.50;99.90
2897;DHT22;1458;49.728;9.228;2022-08-30T05:05:20;13.50;99.90
2897;DHT22;1458;49.728;9.228;2022-08-30T05:08:11;13.50;99.90
2897;DHT22;1458;49.728;9.228;2022-08-30T05:10:42;13.50;99.90
2897;DHT22;1458;49.728;9.228;2022-08-30T05:13:13;13.60;99.90
2897;DHT22;1458;49.728;9.228;2022-08-30T05:15:41;13.60;99.90
2897;DHT22;1458;49.728;9.228;2022-08-30T05:18:28;13.70;99.90
2897;DHT22;1458;49.728;9.228;2022-08-30T05:21:03;13.70;99.90
2897;DHT22;1458;49.728;9.228;2022-08-30T05:23:32;13.70;99.90
2897;DHT22;1458;49.728;9.228;2022-08-30T05:26:04;13.60;99.90
2897;DHT22;1458;49.728;9.228;2022-08-30T05:28:34;13.50;99.90
2897;DHT22;1458;49.728;9.228;2022-08-30T05:31:07;13.50;99.90
2897;DHT22;1458;49.728;9.228;2022-08-30T05:33:39;13.50;99.90
2897;DHT22;1458;49.728;9.228;2022-08-30T05:36:10;13.40;99.90
2897;DHT22;1458;49.728;9.228;2022-08-30T05:38:39;13.60;99.90
2897;DHT22;1458;49.728;9.228;2022-08-30T05:41:06;13.70;99.90
2897;DHT22;1458;49.728;9.228;2022-08-30T05:43:36;13.80;99.90
2897;DHT22;1458;49.728;9.228;2022-08-30T05:46:07;13.90;99.90
2897;DHT22;1458;49.728;9.228;2022-08-30T05:48:35;14.20;99.90
2897;DHT22;1458;49.728;9.228;2022-08-30T05:51:05;14.90;99.90
2897;DHT22;1458;49.728;9.228;2022-08-30T05:53:35;15.60;99.90
2897;DHT22;1458;49.728;9.228;2022-08-30T05:56:05;16.60;98.10
2897;DHT22;1458;49.728;9.228;2022-08-30T05:58:36;17.00;95.90
2897;DHT22;1458;49.728;9.228;2022-08-30T06:01:03;17.30;94.20
2897;DHT22;1458;49.728;9.228;2022-08-30T06:03:32;17.50;93.60
2897;DHT22;1458;49.728;9.228;2022-08-30T06:06:00;17.80;92.70
2897;DHT22;1458;49.728;9.228;2022-08-30T06:08:28;17.80;92.00
2897;DHT22;1458;49.728;9.228;2022-08-30T06:10:56;17.40;92.60
2897;DHT22;1458;49.728;9.228;2022-08-30T06:13:32;17.30;92.40
2897;DHT22;1458;49.728;9.228;2022-08-30T06:16:01;17.40;92.70
2897;DHT22;1458;49.728;9.228;2022-08-30T06:22:05;17.10;92.90
2897;DHT22;1458;49.728;9.228;2022-08-30T06:24:32;17.20;92.80
2897;DHT22;1458;49.728;9.228;2022-08-30T06:27:05;17.20;93.10
2897;DHT22;1458;49.728;9.228;2022-08-30T06:29:32;17.30;92.80
2897;DHT22;1458;49.728;9.228;2022-08-30T06:32:02;17.20;92.80
2897;DHT22;1458;49.728;9.228;2022-08-30T06:34:29;17.20;92.30
2897;DHT22;1458;49.728;9.228;2022-08-30T06:36:57;17.30;92.70
2897;DHT22;1458;49.728;9.228;2022-08-30T06:39:24;17.40;92.10
2897;DHT22;1458;49.728;9.228;2022-08-30T06:41:52;17.70;91.40
2897;DHT22;1458;49.728;9.228;2022-08-30T06:44:26;18.00;90.60
2897;DHT22;1458;49.728;9.228;2022-08-30T06:46:53;18.60;88.70
2897;DHT22;1458;49.728;9.228;2022-08-30T06:49:22;18.50;87.20
2897;DHT22;1458;49.728;9.228;2022-08-30T06:51:50;18.30;87.70
2897;DHT22;1458;49.728;9.228;2022-08-30T06:54:19;18.20;89.60
2897;DHT22;1458;49.728;9.228;2022-08-30T06:56:47;17.90;89.00
2897;DHT22;1458;49.728;9.228;2022-08-30T06:59:16;17.90;88.40
2897;DHT22;1458;49.728;9.228;2022-08-30T07:01:43;17.80;89.10
2897;DHT22;1458;49.728;9.228;2022-08-30T07:04:11;18.00;88.90
2897;DHT22;1458;49.728;9.228;2022-08-30T07:06:41;18.40;88.70
2897;DHT22;1458;49.728;9.228;2022-08-30T07:09:08;18.20;87.20
2897;DHT22;1458;49.728;9.228;2022-08-30T07:11:36;18.30;88.80
2897;DHT22;1458;49.728;9.228;2022-08-30T07:14:05;18.40;90.00
2897;DHT22;1458;49.728;9.228;2022-08-30T07:16:35;18.40;85.40
2897;DHT22;1458;49.728;9.228;2022-08-30T07:19:03;18.60;85.90
2897;DHT22;1458;49.728;9.228;2022-08-30T07:21:33;18.60;84.20
2897;DHT22;1458;49.728;9.228;2022-08-30T07:24:05;18.70;86.50
2897;DHT22;1458;49.728;9.228;2022-08-30T07:26:37;18.70;85.90
2897;DHT22;1458;49.728;9.228;2022-08-30T07:29:08;18.80;84.20
2897;DHT22;1458;49.728;9.228;2022-08-30T07:31:36;18.70;83.80
2897;DHT22;1458;49.728;9.228;2022-08-30T07:34:05;18.70;82.30
2897;DHT22;1458;49.728;9.228;2022-08-30T07:36:33;19.30;83.50
2897;DHT22;1458;49.728;9.228;2022-08-30T07:39:04;19.30;81.60
2897;DHT22;1458;49.728;9.228;2022-08-30T07:41:36;19.70;81.20
2897;DHT22;1458;49.728;9.228;2022-08-30T07:44:04;19.80;80.90
2897;DHT22;1458;49.728;9.228;2022-08-30T07:46:32;20.10;80.00
2897;DHT22;1458;49.728;9.228;2022-08-30T07:49:00;20.10;79.10
2897;DHT22;1458;49.728;9.228;2022-08-30T07:51:30;20.00;77.80
2897;DHT22;1458;49.728;9.228;2022-08-30T07:53:58;20.20;78.10
2897;DHT22;1458;49.728;9.228;2022-08-30T07:56:28;20.50;77.70
2897;DHT22;1458;49.728;9.228;2022-08-30T07:58:55;20.60;76.20
2897;DHT22;1458;49.728;9.228;2022-08-30T08:01:23;20.80;74.80
2897;DHT22;1458;49.728;9.228;2022-08-30T08:03:51;20.70;74.40
2897;DHT22;1458;49.728;9.228;2022-08-30T08:06:20;20.80;72.70
2897;DHT22;1458;49.728;9.228;2022-08-30T08:08:48;20.60;72.60
2897;DHT22;1458;49.728;9.228;2022-08-30T08:11:18;20.50;72.40
2897;DHT22;1458;49.728;9.228;2022-08-30T08:13:49;20.40;72.40
2897;DHT22;1458;49.728;9.228;2022-08-30T08:16:18;20.30;72.30
2897;DHT22;1458;49.728;9.228;2022-08-30T08:18:46;20.30;72.70
2897;DHT22;1458;49.728;9.228;2022-08-30T08:21:14;20.30;71.70
2897;DHT22;1458;49.728;9.228;2022-08-30T08:23:42;20.50;71.50
2897;DHT22;1458;49.728;9.228;2022-08-30T08:26:10;20.40;71.60
2897;DHT22;1458;49.728;9.228;2022-08-30T08:28:38;20.50;70.90
2897;DHT22;1458;49.728;9.228;2022-08-30T08:31:15;20.90;69.90
2897;DHT22;1458;49.728;9.228;2022-08-30T08:33:43;21.10;70.20
2897;DHT22;1458;49.728;9.228;2022-08-30T08:36:11;21.30;69.10
2897;DHT22;1458;49.728;9.228;2022-08-30T08:38:39;21.20;68.00
2897;DHT22;1458;49.728;9.228;2022-08-30T08:41:12;21.30;67.70
2897;DHT22;1458;49.728;9.228;2022-08-30T08:43:47;21.30;67.10
2897;DHT22;1458;49.728;9.228;2022-08-30T08:46:21;21.40;68.00
2897;DHT22;1458;49.728;9.228;2022-08-30T08:48:55;21.90;69.10
2897;DHT22;1458;49.728;9.228;2022-08-30T08:51:27;22.10;67.10
2897;DHT22;1458;49.728;9.228;2022-08-30T08:54:23;22.30;66.50
2897;DHT22;1458;49.728;9.228;2022-08-30T08:57:01;22.30;66.60
2897;DHT22;1458;49.728;9.228;2022-08-30T08:59:29;22.40;64.30
2897;DHT22;1458;49.728;9.228;2022-08-30T09:02:01;22.50;64.80
2897;DHT22;1458;49.728;9.228;2022-08-30T09:04:50;22.50;65.00
2897;DHT22;1458;49.728;9.228;2022-08-30T09:07:25;22.60;62.40
2897;DHT22;1458;49.728;9.228;2022-08-30T09:09:56;22.50;62.50
2897;DHT22;1458;49.728;9.228;2022-08-30T09:12:26;22.50;63.80
2897;DHT22;1458;49.728;9.228;2022-08-30T09:15:00;23.00;61.70
2897;DHT22;1458;49.728;9.228;2022-08-30T09:17:58;22.90;61.50
2897;DHT22;1458;49.728;9.228;2022-08-30T09:20:32;23.20;60.90
2897;DHT22;1458;49.728;9.228;2022-08-30T09:23:20;23.30;60.00
2897;DHT22;1458;49.728;9.228;2022-08-30T09:25:53;23.30;59.40
2897;DHT22;1458;49.728;9.228;2022-08-30T09:28:25;23.50;59.80
2897;DHT22;1458;49.728;9.228;2022-08-30T09:31:21;23.50;58.70
2897;DHT22;1458;49.728;9.228;2022-08-30T09:33:59;23.50;58.00
2897;DHT22;1458;49.728;9.228;2022-08-30T09:36:32;23.50;56.50
2897;DHT22;1458;49.728;9.228;2022-08-30T09:39:03;23.70;57.60
2897;DHT22;1458;49.728;9.228;2022-08-30T09:41:37;23.80;57.10
2897;DHT22;1458;49.728;9.228;2022-08-30T09:44:10;24.10;59.10
2897;DHT22;1458;49.728;9.228;2022-08-30T09:46:49;24.20;56.60
2897;DHT22;1458;49.728;9.228;2022-08-30T09:49:32;24.10;54.10
2897;DHT22;1458;49.728;9.228;2022-08-30T09:52:12;24.30;56.10
2897;DHT22;1458;49.728;9.228;2022-08-30T09:54:52;24.60;54.20
2897;DHT22;1458;49.728;9.228;2022-08-30T09:57:33;24.50;52.10
2897;DHT22;1458;49.728;9.228;2022-08-30T10:00:14;24.20;52.20
2897;DHT22;1458;49.728;9.228;2022-08-30T10:02:59;24.10;53.20
2897;DHT22;1458;49.728;9.228;2022-08-30T10:05:47;24.20;51.40
2897;DHT22;1458;49.728;9.228;2022-08-30T10:08:28;24.20;53.30
2897;DHT22;1458;49.728;9.228;2022-08-30T10:11:05;24.60;52.30
2897;DHT22;1458;49.728;9.228;2022-08-30T10:13:57;24.60;51.80
2897;DHT22;1458;49.728;9.228;2022-08-30T10:16:41;24.70;50.80
2897;DHT22;1458;49.728;9.228;2022-08-30T10:19:30;24.70;50.80
2897;DHT22;1458;49.728;9.228;2022-08-30T10:22:12;24.60;47.90
2897;DHT22;1458;49.728;9.228;2022-08-30T10:24:44;24.60;48.20
2897;DHT22;1458;49.728;9.228;2022-08-30T10:27:16;24.70;46.90
2897;DHT22;1458;49.728;9.228;2022-08-30T10:29:49;24.90;43.60
2897;DHT22;1458;49.728;9.228;2022-08-30T10:32:24;24.70;43.30
2897;DHT22;1458;49.728;9.228;2022-08-30T10:34:56;24.70;43.40
2897;DHT22;1458;49.728;9.228;2022-08-30T10:37:37;24.60;44.70
2897;DHT22;1458;49.728;9.228;2022-08-30T10:40:12;24.80;42.90
2897;DHT22;1458;49.728;9.228;2022-08-30T10:43:21;24.70;42.10
2897;DHT22;1458;49.728;9.228;2022-08-30T10:45:54;24.50;42.80
2897;DHT22;1458;49.728;9.228;2022-08-30T10:48:27;24.80;42.90
2897;DHT22;1458;49.728;9.228;2022-08-30T10:51:01;25.10;40.60
2897;DHT22;1458;49.728;9.228;2022-08-30T10:53:41;25.20;40.30
2897;DHT22;1458;49.728;9.228;2022-08-30T10:56:16;25.10;39.60
2897;DHT22;1458;49.728;9.228;2022-08-30T10:58:46;25.20;38.80
2897;DHT22;1458;49.728;9.228;2022-08-30T11:01:35;25.60;37.00
2897;DHT22;1458;49.728;9.228;2022-08-30T11:04:28;25.40;37.00
2897;DHT22;1458;49.728;9.228;2022-08-30T11:07:13;25.60;36.40
2897;DHT22;1458;49.728;9.228;2022-08-30T11:10:02;25.50;34.30
2897;DHT22;1458;49.728;9.228;2022-08-30T11:12:36;25.70;33.90
2897;DHT22;1458;49.728;9.228;2022-08-30T11:15:15;25.70;34.70
2897;DHT22;1458;49.728;9.228;2022-08-30T11:17:51;25.80;34.20
2897;DHT22;1458;49.728;9.228;2022-08-30T11:20:37;26.00;32.90
2897;DHT22;1458;49.728;9.228;2022-08-30T11:23:26;25.80;32.30
2897;DHT22;1458;49.728;9.228;2022-08-30T11:25:59;25.80;31.40
2897;DHT22;1458;49.728;9.228;2022-08-30T11:29:00;25.80;32.40
2897;DHT22;1458;49.728;9.228;2022-08-30T11:31:40;25.80;31.70
2897;DHT22;1458;49.728;9.228;2022-08-30T11:34:08;26.00;32.20
2897;DHT22;1458;49.728;9.228;2022-08-30T11:37:03;26.00;31.30
2897;DHT22;1458;49.728;9.228;2022-08-30T11:39:56;26.20;30.50
2897;DHT22;1458;49.728;9.228;2022-08-30T11:42:29;26.20;31.20
2897;DHT22;1458;49.728;9.228;2022-08-30T11:48:39;26.20;29.80
2897;DHT22;1458;49.728;9.228;2022-08-30T11:51:39;26.00;30.50
2897;DHT22;1458;49.728;9.228;2022-08-30T11:54:26;26.10;30.30
2897;DHT22;1458;49.728;9.228;2022-08-30T11:57:03;26.30;29.60
2897;DHT22;1458;49.728;9.228;2022-08-30T11:59:47;26.30;29.90
2897;DHT22;1458;49.728;9.228;2022-08-30T12:02:43;26.30;29.80
2897;DHT22;1458;49.728;9.228;2022-08-30T12:05:45;26.30;30.00
2897;DHT22;1458;49.728;9.228;2022-08-30T12:08:47;26.30;28.60
2897;DHT22;1458;49.728;9.228;2022-08-30T12:11:52;26.30;27.30
2897;DHT22;1458;49.728;9.228;2022-08-30T12:14:44;26.40;27.80
2897;DHT22;1458;49.728;9.228;2022-08-30T12:17:32;26.50;27.60
2897;DHT22;1458;49.728;9.228;2022-08-30T12:20:49;26.40;28.70
2897;DHT22;1458;49.728;9.228;2022-08-30T12:23:19;26.70;28.60
2897;DHT22;1458;49.728;9.228;2022-08-30T12:26:08;26.60;28.80
2897;DHT22;1458;49.728;9.228;2022-08-30T12:28:41;26.80;28.00
2897;DHT22;1458;49.728;9.228;2022-08-30T12:31:15;26.60;27.30
2897;DHT22;1458;49.728;9.228;2022-08-30T12:33:46;26.60;27.90
2897;DHT22;1458;49.728;9.228;2022-08-30T12:36:30;26.70;28.10
2897;DHT22;1458;49.728;9.228;2022-08-30T12:39:14;26.80;26.70
2897;DHT22;1458;49.728;9.228;2022-08-30T12:41:44;26.80;27.60
2897;DHT22;1458;49.728;9.228;2022-08-30T12:44:14;26.70;25.90
2897;DHT22;1458;49.728;9.228;2022-08-30T12:46:47;26.70;25.80
2897;DHT22;1458;49.728;9.228;2022-08-30T12:49:19;26.80;25.70
2897;DHT22;1458;49.728;9.228;2022-08-30T12:51:48;26.90;25.70
2897;DHT22;1458;49.728;9.228;2022-08-30T12:54:19;26.90;26.40
2897;DHT22;1458;49.728;9.228;2022-08-30T12:57:00;27.30;25.70
2897;DHT22;1458;49.728;9.228;2022-08-30T13:02:42;27.40;24.30
2897;DHT22;1458;49.728;9.228;2022-08-30T13:05:29;27.60;23.40
2897;DHT22;1458;49.728;9.228;2022-08-30T13:08:20;27.50;22.90
2897;DHT22;1458;49.728;9.228;2022-08-30T13:10:56;27.30;23.60
2897;DHT22;1458;49.728;9.228;2022-08-30T13:13:28;27.30;22.90
2897;DHT22;1458;49.728;9.228;2022-08-30T13:16:08;27.20;23.80
2897;DHT22;1458;49.728;9.228;2022-08-30T13:18:40;27.10;23.10
2897;DHT22;1458;49.728;9.228;2022-08-30T13:21:27;26.90;24.80
2897;DHT22;1458;49.728;9.228;2022-08-30T13:23:57;27.10;24.50
2897;DHT22;1458;49.728;9.228;2022-08-30T13:26:28;27.30;22.90
2897;DHT22;1458;49.728;9.228;2022-08-30T13:29:00;27.10;23.20
2897;DHT22;1458;49.728;9.228;2022-08-30T13:31:30;27.10;22.30
2897;DHT22;1458;49.728;9.228;2022-08-30T13:33:59;27.00;22.20
2897;DHT22;1458;49.728;9.228;2022-08-30T13:36:29;26.90;23.00
2897;DHT22;1458;49.728;9.228;2022-08-30T13:38:59;26.90;23.40
2897;DHT22;1458;49.728;9.228;2022-08-30T13:41:33;27.10;23.50
2897;DHT22;1458;49.728;9.228;2022-08-30T13:44:00;27.40;22.70
2897;DHT22;1458;49.728;9.228;2022-08-30T13:46:30;27.40;22.20
2897;DHT22;1458;49.728;9.228;2022-08-30T13:49:04;27.40;21.40
2897;DHT22;1458;49.728;9.228;2022-08-30T13:51:33;27.10;22.20
2897;DHT22;1458;49.728;9.228;2022-08-30T13:54:01;27.10;22.00
2897;DHT22;1458;49.728;9.228;2022-08-30T13:56:29;27.30;21.40
2897;DHT22;1458;49.728;9.228;2022-08-30T13:58:57;27.30;22.30
2897;DHT22;1458;49.728;9.228;2022-08-30T14:01:25;27.40;22.40
2897;DHT22;1458;49.728;9.228;2022-08-30T14:03:53;27.40;22.00
2897;DHT22;1458;49.728;9.228;2022-08-30T14:06:23;27.40;21.20
2897;DHT22;1458;49.728;9.228;2022-08-30T14:08:53;27.60;21.60
2897;DHT22;1458;49.728;9.228;2022-08-30T14:11:20;28.00;21.50
2897;DHT22;1458;49.728;9.228;2022-08-30T14:13:50;28.10;20.80
2897;DHT22;1458;49.728;9.228;2022-08-30T14:16:18;28.00;21.10
2897;DHT22;1458;49.728;9.228;2022-08-30T14:18:46;28.10;20.00
2897;DHT22;1458;49.728;9.228;2022-08-30T14:21:13;28.00;21.20
2897;DHT22;1458;49.728;9.228;2022-08-30T14:23:42;28.00;21.20
2897;DHT22;1458;49.728;9.228;2022-08-30T14:26:14;27.70;21.70
2897;DHT22;1458;49.728;9.228;2022-08-30T14:28:44;27.80;20.80
2897;DHT22;1458;49.728;9.228;2022-08-30T14:31:12;27.60;21.20
2897;DHT22;1458;49.728;9.228;2022-08-30T14:33:40;27.60;21.10
2897;DHT22;1458;49.728;9.228;2022-08-30T14:36:08;27.60;21.10
2897;DHT22;1458;49.728;9.228;2022-08-30T14:38:38;27.60;21.30
2897;DHT22;1458;49.728;9.228;2022-08-30T14:41:07;27.50;20.30
2897;DHT22;1458;49.728;9.228;2022-08-30T14:43:35;27.40;20.40
2897;DHT22;1458;49.728;9.228;2022-08-30T14:46:05;27.40;20.00
2897;DHT22;1458;49.728;9.228;2022-08-30T14:48:32;27.30;20.60
2897;DHT22;1458;49.728;9.228;2022-08-30T14:51:00;27.30;21.20
2897;DHT22;1458;49.728;9.228;2022-08-30T14:53:31;27.30;20.70
2897;DHT22;1458;49.728;9.228;2022-08-30T14:55:58;27.30;21.20
2897;DHT22;1458;49.728;9.228;2022-08-30T14:58:27;27.40;22.70
2897;DHT22;1458;49.728;9.228;2022-08-30T15:00:55;27.30;21.20
2897;DHT22;1458;49.728;9.228;2022-08-30T15:03:23;27.20;21.20
2897;DHT22;1458;49.728;9.228;2022-08-30T15:05:51;27.20;20.40
2897;DHT22;1458;49.728;9.228;2022-08-30T15:08:18;27.40;20.60
2897;DHT22;1458;49.728;9.228;2022-08-30T15:10:46;27.50;21.10
2897;DHT22;1458;49.728;9.228;2022-08-30T15:13:14;27.40;19.90
2897;DHT22;1458;49.728;9.228;2022-08-30T15:15:43;27.40;20.30
2897;DHT22;1458;49.728;9.228;2022-08-30T15:18:11;27.40;19.30
2897;DHT22;1458;49.728;9.228;2022-08-30T15:20:44;27.30;20.80
2897;DHT22;1458;49.728;9.228;2022-08-30T15:23:12;27.30;20.00
2897;DHT22;1458;49.728;9.228;2022-08-30T15:25:41;27.50;19.50
2897;DHT22;1458;49.728;9.228;2022-08-30T15:28:09;27.60;19.70
2897;DHT22;1458;49.728;9.228;2022-08-30T15:30:36;27.50;19.70
2897;DHT22;1458;49.728;9.228;2022-08-30T15:33:06;27.60;20.30
2897;DHT22;1458;49.728;9.228;2022-08-30T15:35:34;27.60;18.90
2897;DHT22;1458;49.728;9.228;2022-08-30T15:38:01;27.50;20.10
2897;DHT22;1458;49.728;9.228;2022-08-30T15:40:31;27.40;19.90
2897;DHT22;1458;49.728;9.228;2022-08-30T15:43:01;27.40;20.40
2897;DHT22;1458;49.728;9.228;2022-08-30T15:45:30;27.40;20.40
2897;DHT22;1458;49.728;9.228;2022-08-30T15:47:59;27.50;20.40
2897;DHT22;1458;49.728;9.228;2022-08-30T15:50:28;27.60;20.20
2897;DHT22;1458;49.728;9.228;2022-08-30T15:52:55;27.60;20.00
2897;DHT22;1458;49.728;9.228;2022-08-30T15:55:27;27.60;19.80
2897;DHT22;1458;49.728;9.228;2022-08-30T15:57:55;27.40;20.00
2897;DHT22;1458;49.728;9.228;2022-08-30T16:00:23;27.40;19.60
2897;DHT22;1458;49.728;9.228;2022-08-30T16:02:50;27.30;19.50
2897;DHT22;1458;49.728;9.228;2022-08-30T16:05:18;27.30;19.90
2897;DHT22;1458;49.728;9.228;2022-08-30T16:07:50;27.10;20.20
2897;DHT22;1458;49.728;9.228;2022-08-30T16:10:17;27.10;22.00
2897;DHT22;1458;49.728;9.228;2022-08-30T16:12:46;27.00;22.10
2897;DHT22;1458;49.728;9.228;2022-08-30T16:15:13;26.80;21.20
2897;DHT22;1458;49.728;9.228;2022-08-30T16:17:43;26.80;21.20
2897;DHT22;1458;49.728;9.228;2022-08-30T16:20:10;26.80;21.80
2897;DHT22;1458;49.728;9.228;2022-08-30T16:22:39;26.80;20.40
2897;DHT22;1458;49.728;9.228;2022-08-30T16:25:09;26.80;20.80
2897;DHT22;1458;49.728;9.228;2022-08-30T16:27:36;26.60;21.30
2897;DHT22;1458;49.728;9.228;2022-08-30T16:30:09;26.60;22.50
2897;DHT22;1458;49.728;9.228;2022-08-30T16:32:38;26.70;23.30
2897;DHT22;1458;49.728;9.228;2022-08-30T16:35:07;26.60;23.10
2897;DHT22;1458;49.728;9.228;2022-08-30T16:37:35;26.60;25.10
2897;DHT22;1458;49.728;9.228;2022-08-30T16:40:03;26.50;24.50
2897;DHT22;1458;49.728;9.228;2022-08-30T16:42:35;26.50;23.40
2897;DHT22;1458;49.728;9.228;2022-08-30T16:45:04;26.50;25.50
2897;DHT22;1458;49.728;9.228;2022-08-30T16:47:32;26.40;25.20
2897;DHT22;1458;49.728;9.228;2022-08-30T16:50:00;26.40;27.10
2897;DHT22;1458;49.728;9.228;2022-08-30T16:52:27;26.40;25.90